sensor_id;sensor_type;location;lat;lon;timestamp;temperature;humidity
26378;DHT22;14078;50.974;6.786;2022-07-21T00:00:27;19.30;99.90
26378;DHT22;14078;50.974;6.786;2022-07-21T00:02:54;19.10;99.90
26378;DHT22;14078;50.974;6.786;2022-07-21T00:05:22;19.10;99.90
26378;DHT22;14078;50.974;6.786;2022-07-21T00:07:49;19.10;99.90
26378;DHT22;14078;50.974;6.786;2022-07-21T00:10:19;19.10;99.90
26378;DHT22;14078;50.974;6.786;2022-07-21T00:12:46;19.20;99.90
26378;DHT22;14078;50.974;6.786;2022-07-21T00:15:15;19.30;99.90
26378;DHT22;14078;50.974;6.786;2022-07-21T00:17:41;19.30;99.90
26378;DHT22;14078;50.974;6.786;2022-07-21T00:20:10;19.20;99.90
26378;DHT22;14078;50.974;6.786;2022-07-21T00:22:37;19.30;99.90
26378;DHT22;14078;50.974;6.786;2022-07-21T00:25:05;19.30;99.90
26378;DHT22;14078;50.974;6.786;2022-07-21T00:27:33;19.20;99.90
26378;DHT22;14078;50.974;6.786;2022-07-21T00:30:00;19.10;99.90
26378;DHT22;14078;50.974;6.786;2022-07-21T00:32:27;19.10;99.90
26378;DHT22;14078;50.974;6.786;2022-07-21T00:34:54;19.10;99.90
26378;DHT22;14078;50.974;6.786;2022-07-21T00:37:20;19.20;99.90
26378;DHT22;14078;50.974;6.786;2022-07-21T00:39:49;19.20;99.90
26378;DHT22;14078;50.974;6.786;2022-07-21T00:42:22;19.20;99.90
26378;DHT22;14078;50.974;6.786;2022-07-21T00:44:51;19.20;99.90
26378;DHT22;14078;50.974;6.786;2022-07-21T00:47:19;19.10;99.90
26378;DHT22;14078;50.974;6.786;2022-07-21T00:49:46;19.10;99.90
26378;DHT22;14078;50.974;6.786;2022-07-21T00:52:13;18.90;99.90
26378;DHT22;14078;50.974;6.786;2022-07-21T00:54:39;18.90;99.90
26378;DHT22;14078;50.974;6.786;2022-07-21T00:57:06;18.80;99.90
26378;DHT22;14078;50.974;6.786;2022-07-21T00:59:33;18.80;99.90
26378;DHT22;14078;50.974;6.786;2022-07-21T01:02:02;18.90;99.90
26378;DHT22;14078;50.974;6.786;2022-07-21T01:04:29;18.90;99.90
26378;DHT22;14078;50.974;6.786;2022-07-21T01:06:55;19.00;99.90
26378;DHT22;14078;50.974;6.786;2022-07-21T01:09:23;19.00;99.90
26378;DHT22;14078;50.974;6.786;2022-07-21T01:11:50;18.90;99.90
26378;DHT22;14078;50.974;6.786;2022-07-21T01:14:17;19.00;99.90
26378;DHT22;14078;50.974;6.786;2022-07-21T01:16:44;19.00;99.90
26378;DHT22;14078;50.974;6.786;2022-07-21T01:19:12;18.90;99.90
26378;DHT22;14078;50.974;6.786;2022-07-21T01:21:43;19.00;99.90
26378;DHT22;14078;50.974;6.786;2022-07-21T01:24:10;19.00;99.90
26378;DHT22;14078;50.974;6.786;2022-07-21T01:26:41;19.00;99.90
26378;DHT22;14078;50.974;6.786;2022-07-21T01:29:08;19.10;99.90
26378;DHT22;14078;50.974;6.786;2022-07-21T01:31:36;19.20;99.90
26378;DHT22;14078;50.974;6.786;2022-07-21T01:34:03;19.20;99.90
26378;DHT22;14078;50.974;6.786;2022-07-21T01:36:30;19.10;99.90
26378;DHT22;14078;50.974;6.786;2022-07-21T01:38:59;19.10;99.90
26378;DHT22;14078;50.974;6.786;2022-07-21T01:41:43;19.10;99.90
26378;DHT22;14078;50.974;6.786;2022-07-21T01:44:11;19.10;99.90
26378;DHT22;14078;50.974;6.786;2022-07-21T01:46:40;19.20;99.90
26378;DHT22;14078;50.974;6.786;2022-07-21T01:49:07;19.10;99.90
26378;DHT22;14078;50.974;6.786;2022-07-21T01:51:34;19.20;99.90
26378;DHT22;14078;50.974;6.786;2022-07-21T01:54:02;19.30;99.90
26378;DHT22;14078;50.974;6.786;2022-07-21T01:56:29;19.40;99.90
26378;DHT22;14078;50.974;6.786;2022-07-21T01:58:57;19.40;99.90
26378;DHT22;14078;50.974;6.786;2022-07-21T02:01:25;19.40;99.90
26378;DHT22;14078;50.974;6.786;2022-07-21T02:03:55;19.40;99.90
26378;DHT22;14078;50.974;6.786;2022-07-21T02:06:22;19.30;99.90
26378;DHT22;14078;50.974;6.786;2022-07-21T02:08:49;19.30;99.90
26378;DHT22;14078;50.974;6.786;2022-07-21T02:11:18;19.20;99.90
26378;DHT22;14078;50.974;6.786;2022-07-21T02:13:45;19.20;99.90
26378;DHT22;14078;50.974;6.786;2022-07-21T02:16:12;19.30;99.90
26378;DHT22;14078;50.974;6.786;2022-07-21T02:18:39;19.30;99.90
26378;DHT22;14078;50.974;6.786;2022-07-21T02:21:07;19.30;99.90
26378;DHT22;14078;50.974;6.786;2022-07-21T02:23:34;19.40;99.90
26378;DHT22;14078;50.974;6.786;2022-07-21T02:26:00;19.40;99.90
26378;DHT22;14078;50.974;6.786;2022-07-21T02:28:28;19.40;99.90
26378;DHT22;14078;50.974;6.786;2022-07-21T02:30:55;19.40;99.90
26378;DHT22;14078;50.974;6.786;2022-07-21T02:33:22;19.30;99.90
26378;DHT22;14078;50.974;6.786;2022-07-21T02:35:49;19.20;99.90
26378;DHT22;14078;50.974;6.786;2022-07-21T02:38:15;19.30;99.90
26378;DHT22;14078;50.974;6.786;2022-07-21T02:40:42;19.20;99.90
26378;DHT22;14078;50.974;6.786;2022-07-21T02:43:09;19.10;99.90
26378;DHT22;14078;50.974;6.786;2022-07-21T02:45:37;19.10;99.90
26378;DHT22;14078;50.974;6.786;2022-07-21T02:48:06;19.10;99.90
26378;DHT22;14078;50.974;6.786;2022-07-21T02:50:35;19.20;99.90
26378;DHT22;14078;50.974;6.786;2022-07-21T02:53:04;19.20;99.90
26378;DHT22;14078;50.974;6.786;2022-07-21T02:55:31;19.20;99.90
26378;DHT22;14078;50.974;6.786;2022-07-21T02:58:09;19.20;99.90
26378;DHT22;14078;50.974;6.786;2022-07-21T03:00:40;19.20;99.90
26378;DHT22;14078;50.974;6.786;2022-07-21T03:03:07;19.20;99.90
26378;DHT22;14078;50.974;6.786;2022-07-21T03:05:36;19.20;99.90
26378;DHT22;14078;50.974;6.786;2022-07-21T03:08:04;19.20;99.90
26378;DHT22;14078;50.974;6.786;2022-07-21T03:10:31;19.10;99.90
26378;DHT22;14078;50.974;6.786;2022-07-21T03:12:57;19.00;99.90
26378;DHT22;14078;50.974;6.786;2022-07-21T03:15:24;19.00;99.90
26378;DHT22;14078;50.974;6.786;2022-07-21T03:17:53;18.90;99.90
26378;DHT22;14078;50.974;6.786;2022-07-21T03:20:22;18.90;99.90
26378;DHT22;14078;50.974;6.786;2022-07-21T03:22:49;19.00;99.90
26378;DHT22;14078;50.974;6.786;2022-07-21T03:25:16;18.90;99.90
26378;DHT22;14078;50.974;6.786;2022-07-21T03:27:43;19.00;99.90
26378;DHT22;14078;50.974;6.786;2022-07-21T03:30:10;19.00;99.90
26378;DHT22;14078;50.974;6.786;2022-07-21T03:32:37;19.00;99.90
26378;DHT22;14078;50.974;6.786;2022-07-21T03:35:07;19.00;99.90
26378;DHT22;14078;50.974;6.786;2022-07-21T03:37:39;19.00;99.90
26378;DHT22;14078;50.974;6.786;2022-07-21T03:40:07;19.00;99.90
26378;DHT22;14078;50.974;6.786;2022-07-21T03:42:34;19.00;99.90
26378;DHT22;14078;50.974;6.786;2022-07-21T03:45:01;19.10;99.90
26378;DHT22;14078;50.974;6.786;2022-07-21T03:47:28;19.10;99.90
26378;DHT22;14078;50.974;6.786;2022-07-21T03:49:54;19.00;99.90
26378;DHT22;14078;50.974;6.786;2022-07-21T03:52:22;18.90;99.90
26378;DHT22;14078;50.974;6.786;2022-07-21T03:54:49;18.90;99.90
26378;DHT22;14078;50.974;6.786;2022-07-21T03:57:34;18.90;99.90
26378;DHT22;14078;50.974;6.786;2022-07-21T04:00:00;18.90;99.90
26378;DHT22;14078;50.974;6.786;2022-07-21T04:02:27;19.00;99.90
26378;DHT22;14078;50.974;6.786;2022-07-21T04:04:54;19.00;99.90
26378;DHT22;14078;50.974;6.786;2022-07-21T04:07:22;19.10;99.90
26378;DHT22;14078;50.974;6.786;2022-07-21T04:09:49;19.20;99.90
26378;DHT22;14078;50.974;6.786;2022-07-21T04:12:16;19.20;99.90
26378;DHT22;14078;50.974;6.786;2022-07-21T04:14:43;19.20;99.90
26378;DHT22;14078;50.974;6.786;2022-07-21T04:17:10;19.30;99.90
26378;DHT22;14078;50.974;6.786;2022-07-21T04:19:36;19.30;99.90
26378;DHT22;14078;50.974;6.786;2022-07-21T04:22:03;19.30;99.90
26378;DHT22;14078;50.974;6.786;2022-07-21T04:24:31;19.30;99.90
26378;DHT22;14078;50.974;6.786;2022-07-21T04:26:58;19.40;99.90
26378;DHT22;14078;50.974;6.786;2022-07-21T04:29:24;19.40;99.90
26378;DHT22;14078;50.974;6.786;2022-07-21T04:31:51;19.40;99.90
26378;DHT22;14078;50.974;6.786;2022-07-21T04:34:18;19.60;99.90
26378;DHT22;14078;50.974;6.786;2022-07-21T04:36:44;19.70;99.90
26378;DHT22;14078;50.974;6.786;2022-07-21T04:39:11;19.70;99.90
26378;DHT22;14078;50.974;6.786;2022-07-21T04:41:39;19.80;99.90
26378;DHT22;14078;50.974;6.786;2022-07-21T04:44:06;19.80;99.90
26378;DHT22;14078;50.974;6.786;2022-07-21T04:46:32;19.70;99.90
26378;DHT22;14078;50.974;6.786;2022-07-21T04:48:59;19.70;99.90
26378;DHT22;14078;50.974;6.786;2022-07-21T04:51:26;19.60;99.90
26378;DHT22;14078;50.974;6.786;2022-07-21T04:53:52;19.60;99.90
26378;DHT22;14078;50.974;6.786;2022-07-21T04:56:19;19.60;99.90
26378;DHT22;14078;50.974;6.786;2022-07-21T04:58:47;19.60;99.90
26378;DHT22;14078;50.974;6.786;2022-07-21T05:01:14;19.60;99.90
26378;DHT22;14078;50.974;6.786;2022-07-21T05:03:43;19.70;99.90
26378;DHT22;14078;50.974;6.786;2022-07-21T05:06:10;19.80;99.90
26378;DHT22;14078;50.974;6.786;2022-07-21T05:08:37;20.00;99.90
26378;DHT22;14078;50.974;6.786;2022-07-21T05:11:04;20.10;99.90
26378;DHT22;14078;50.974;6.786;2022-07-21T05:13:30;20.20;99.90
26378;DHT22;14078;50.974;6.786;2022-07-21T05:15:58;20.10;99.90
26378;DHT22;14078;50.974;6.786;2022-07-21T05:18:25;20.20;99.90
26378;DHT22;14078;50.974;6.786;2022-07-21T05:20:52;20.20;99.90
26378;DHT22;14078;50.974;6.786;2022-07-21T05:23:19;20.10;99.90
26378;DHT22;14078;50.974;6.786;2022-07-21T05:25:46;20.00;99.90
26378;DHT22;14078;50.974;6.786;2022-07-21T05:28:12;20.00;99.90
26378;DHT22;14078;50.974;6.786;2022-07-21T05:30:39;20.00;99.90
26378;DHT22;14078;50.974;6.786;2022-07-21T05:33:07;19.90;99.90
26378;DHT22;14078;50.974;6.786;2022-07-21T05:35:34;19.80;99.90
26378;DHT22;14078;50.974;6.786;2022-07-21T05:38:00;19.80;99.90
26378;DHT22;14078;50.974;6.786;2022-07-21T05:40:27;19.80;99.90
26378;DHT22;14078;50.974;6.786;2022-07-21T05:42:54;19.80;99.90
26378;DHT22;14078;50.974;6.786;2022-07-21T05:45:20;19.80;99.90
26378;DHT22;14078;50.974;6.786;2022-07-21T05:47:47;19.80;99.90
26378;DHT22;14078;50.974;6.786;2022-07-21T05:50:15;19.70;99.90
26378;DHT22;14078;50.974;6.786;2022-07-21T05:52:42;19.70;99.90
26378;DHT22;14078;50.974;6.786;2022-07-21T05:55:09;19.70;99.90
26378;DHT22;14078;50.974;6.786;2022-07-21T05:57:36;19.70;99.90
26378;DHT22;14078;50.974;6.786;2022-07-21T06:00:05;19.60;99.90
26378;DHT22;14078;50.974;6.786;2022-07-21T06:02:32;19.60;99.90
26378;DHT22;14078;50.974;6.786;2022-07-21T06:04:59;19.60;99.90
26378;DHT22;14078;50.974;6.786;2022-07-21T06:07:27;19.60;99.90
26378;DHT22;14078;50.974;6.786;2022-07-21T06:09:54;19.50;99.90
26378;DHT22;14078;50.974;6.786;2022-07-21T06:12:20;19.50;99.90
26378;DHT22;14078;50.974;6.786;2022-07-21T06:14:47;19.40;99.90
26378;DHT22;14078;50.974;6.786;2022-07-21T06:17:14;19.40;99.90
26378;DHT22;14078;50.974;6.786;2022-07-21T06:19:41;19.40;99.90
26378;DHT22;14078;50.974;6.786;2022-07-21T06:22:08;19.40;99.90
26378;DHT22;14078;50.974;6.786;2022-07-21T06:24:36;19.60;99.90
26378;DHT22;14078;50.974;6.786;2022-07-21T06:27:03;19.80;99.90
26378;DHT22;14078;50.974;6.786;2022-07-21T06:29:30;20.00;99.90
26378;DHT22;14078;50.974;6.786;2022-07-21T06:31:56;20.10;99.90
26378;DHT22;14078;50.974;6.786;2022-07-21T06:34:23;20.10;99.90
26378;DHT22;14078;50.974;6.786;2022-07-21T06:36:50;20.10;99.90
26378;DHT22;14078;50.974;6.786;2022-07-21T06:39:17;20.00;99.90
26378;DHT22;14078;50.974;6.786;2022-07-21T06:41:45;19.70;99.90
26378;DHT22;14078;50.974;6.786;2022-07-21T06:44:11;19.80;99.90
26378;DHT22;14078;50.974;6.786;2022-07-21T06:46:38;19.90;99.90
26378;DHT22;14078;50.974;6.786;2022-07-21T06:49:05;20.10;99.90
26378;DHT22;14078;50.974;6.786;2022-07-21T06:51:31;20.30;99.90
26378;DHT22;14078;50.974;6.786;2022-07-21T06:53:58;20.60;99.90
26378;DHT22;14078;50.974;6.786;2022-07-21T06:56:25;20.90;99.90
26378;DHT22;14078;50.974;6.786;2022-07-21T06:58:53;21.00;98.70
26378;DHT22;14078;50.974;6.786;2022-07-21T07:01:19;21.00;99.90
26378;DHT22;14078;50.974;6.786;2022-07-21T07:03:46;21.00;98.80
26378;DHT22;14078;50.974;6.786;2022-07-21T07:06:13;21.10;95.90
26378;DHT22;14078;50.974;6.786;2022-07-21T07:08:40;21.30;91.30
26378;DHT22;14078;50.974;6.786;2022-07-21T07:11:07;21.40;93.20
26378;DHT22;14078;50.974;6.786;2022-07-21T07:13:33;21.40;89.60
26378;DHT22;14078;50.974;6.786;2022-07-21T07:16:02;21.50;78.30
26378;DHT22;14078;50.974;6.786;2022-07-21T07:18:28;21.50;88.20
26378;DHT22;14078;50.974;6.786;2022-07-21T07:20:55;21.60;89.00
26378;DHT22;14078;50.974;6.786;2022-07-21T07:23:22;21.70;86.30
26378;DHT22;14078;50.974;6.786;2022-07-21T07:25:49;21.80;64.10
26378;DHT22;14078;50.974;6.786;2022-07-21T07:28:15;21.80;62.40
26378;DHT22;14078;50.974;6.786;2022-07-21T07:30:42;21.80;63.60
26378;DHT22;14078;50.974;6.786;2022-07-21T07:33:10;21.70;68.80
26378;DHT22;14078;50.974;6.786;2022-07-21T07:35:37;21.70;59.80
26378;DHT22;14078;50.974;6.786;2022-07-21T07:38:04;21.90;59.10
26378;DHT22;14078;50.974;6.786;2022-07-21T07:40:30;22.10;77.80
26378;DHT22;14078;50.974;6.786;2022-07-21T07:42:57;22.30;51.80
26378;DHT22;14078;50.974;6.786;2022-07-21T07:45:24;22.30;30.70
26378;DHT22;14078;50.974;6.786;2022-07-21T07:47:51;22.40;29.50
26378;DHT22;14078;50.974;6.786;2022-07-21T07:50:19;22.60;38.40
26378;DHT22;14078;50.974;6.786;2022-07-21T07:52:46;22.60;40.60
26378;DHT22;14078;50.974;6.786;2022-07-21T07:55:13;22.70;35.20
26378;DHT22;14078;50.974;6.786;2022-07-21T07:57:42;22.60;3.90
26378;DHT22;14078;50.974;6.786;2022-07-21T08:00:10;22.50;11.40
26378;DHT22;14078;50.974;6.786;2022-07-21T08:02:38;22.30;24.70
26378;DHT22;14078;50.974;6.786;2022-07-21T08:05:05;22.00;12.30
26378;DHT22;14078;50.974;6.786;2022-07-21T08:07:35;21.80;32.70
26378;DHT22;14078;50.974;6.786;2022-07-21T08:10:04;21.90;22.90
26378;DHT22;14078;50.974;6.786;2022-07-21T08:12:31;21.90;19.50
26378;DHT22;14078;50.974;6.786;2022-07-21T08:14:57;22.20;24.10
26378;DHT22;14078;50.974;6.786;2022-07-21T08:17:24;22.50;4.60
26378;DHT22;14078;50.974;6.786;2022-07-21T08:19:51;22.60;10.10
26378;DHT22;14078;50.974;6.786;2022-07-21T08:22:18;22.80;1.00
26378;DHT22;14078;50.974;6.786;2022-07-21T08:24:46;22.80;1.00
26378;DHT22;14078;50.974;6.786;2022-07-21T08:27:13;22.80;1.00
26378;DHT22;14078;50.974;6.786;2022-07-21T08:29:40;22.80;1.00
26378;DHT22;14078;50.974;6.786;2022-07-21T08:32:06;22.60;1.00
26378;DHT22;14078;50.974;6.786;2022-07-21T08:34:33;22.40;1.00
26378;DHT22;14078;50.974;6.786;2022-07-21T08:37:00;22.40;1.00
26378;DHT22;14078;50.974;6.786;2022-07-21T08:39:26;22.60;1.00
26378;DHT22;14078;50.974;6.786;2022-07-21T08:41:54;22.90;1.00
26378;DHT22;14078;50.974;6.786;2022-07-21T08:44:22;23.20;1.00
26378;DHT22;14078;50.974;6.786;2022-07-21T08:46:50;23.10;1.00
26378;DHT22;14078;50.974;6.786;2022-07-21T08:49:19;23.10;1.00
26378;DHT22;14078;50.974;6.786;2022-07-21T08:51:47;23.10;1.00
26378;DHT22;14078;50.974;6.786;2022-07-21T08:54:13;23.30;1.00
26378;DHT22;14078;50.974;6.786;2022-07-21T08:59:09;23.60;1.00
26378;DHT22;14078;50.974;6.786;2022-07-21T09:01:35;23.50;1.00
26378;DHT22;14078;50.974;6.786;2022-07-21T09:04:24;23.50;1.00
26378;DHT22;14078;50.974;6.786;2022-07-21T09:06:55;23.60;1.00
26378;DHT22;14078;50.974;6.786;2022-07-21T09:09:23;23.80;1.00
26378;DHT22;14078;50.974;6.786;2022-07-21T09:11:51;23.60;1.00
26378;DHT22;14078;50.974;6.786;2022-07-21T09:14:21;23.70;99.90
26378;DHT22;14078;50.974;6.786;2022-07-21T09:16:52;23.70;99.90
26378;DHT22;14078;50.974;6.786;2022-07-21T09:19:21;23.50;99.90
26378;DHT22;14078;50.974;6.786;2022-07-21T09:21:50;23.40;99.90
26378;DHT22;14078;50.974;6.786;2022-07-21T09:24:20;23.40;99.90
26378;DHT22;14078;50.974;6.786;2022-07-21T09:27:01;23.20;99.90
26378;DHT22;14078;50.974;6.786;2022-07-21T09:29:36;23.30;99.90
26378;DHT22;14078;50.974;6.786;2022-07-21T09:32:22;23.30;99.90
26378;DHT22;14078;50.974;6.786;2022-07-21T09:34:51;23.40;99.90
26378;DHT22;14078;50.974;6.786;2022-07-21T09:37:19;23.60;90.40
26378;DHT22;14078;50.974;6.786;2022-07-21T09:39:48;23.80;1.00
26378;DHT22;14078;50.974;6.786;2022-07-21T09:42:18;23.80;1.00
26378;DHT22;14078;50.974;6.786;2022-07-21T09:44:47;23.90;1.00
26378;DHT22;14078;50.974;6.786;2022-07-21T09:47:16;24.00;1.00
26378;DHT22;14078;50.974;6.786;2022-07-21T09:49:44;24.00;1.00
26378;DHT22;14078;50.974;6.786;2022-07-21T09:52:25;23.90;1.00
26378;DHT22;14078;50.974;6.786;2022-07-21T09:54:53;23.80;1.00
26378;DHT22;14078;50.974;6.786;2022-07-21T09:57:21;23.70;1.00
26378;DHT22;14078;50.974;6.786;2022-07-21T09:59:49;23.70;1.00
26378;DHT22;14078;50.974;6.786;2022-07-21T10:02:19;23.80;1.00
26378;DHT22;14078;50.974;6.786;2022-07-21T10:04:47;23.90;1.00
26378;DHT22;14078;50.974;6.786;2022-07-21T10:07:15;24.10;1.00
26378;DHT22;14078;50.974;6.786;2022-07-21T10:09:43;24.30;1.00
26378;DHT22;14078;50.974;6.786;2022-07-21T10:12:10;24.30;1.00
26378;DHT22;14078;50.974;6.786;2022-07-21T10:14:37;24.30;1.00
26378;DHT22;14078;50.974;6.786;2022-07-21T10:17:05;24.20;1.00
26378;DHT22;14078;50.974;6.786;2022-07-21T10:19:37;24.00;1.00
26378;DHT22;14078;50.974;6.786;2022-07-21T10:22:12;23.80;1.00
26378;DHT22;14078;50.974;6.786;2022-07-21T10:24:42;23.90;1.00
26378;DHT22;14078;50.974;6.786;2022-07-21T10:27:10;23.70;1.00
26378;DHT22;14078;50.974;6.786;2022-07-21T10:29:55;23.60;1.00
26378;DHT22;14078;50.974;6.786;2022-07-21T10:32:24;23.50;1.00
26378;DHT22;14078;50.974;6.786;2022-07-21T10:34:53;23.30;1.00
26378;DHT22;14078;50.974;6.786;2022-07-21T10:37:44;23.30;1.00
26378;DHT22;14078;50.974;6.786;2022-07-21T10:40:35;23.20;1.00
26378;DHT22;14078;50.974;6.786;2022-07-21T10:43:40;23.20;99.90
26378;DHT22;14078;50.974;6.786;2022-07-21T10:46:36;23.10;99.90
26378;DHT22;14078;50.974;6.786;2022-07-21T10:49:07;22.90;99.90
26378;DHT22;14078;50.974;6.786;2022-07-21T10:51:35;22.40;99.90
26378;DHT22;14078;50.974;6.786;2022-07-21T10:54:23;22.00;99.90
26378;DHT22;14078;50.974;6.786;2022-07-21T10:57:25;21.90;1.00
26378;DHT22;14078;50.974;6.786;2022-07-21T11:00:15;21.80;1.00
26378;DHT22;14078;50.974;6.786;2022-07-21T11:02:42;21.70;1.00
26378;DHT22;14078;50.974;6.786;2022-07-21T11:05:10;21.60;1.00
26378;DHT22;14078;50.974;6.786;2022-07-21T11:08:09;21.60;1.00
26378;DHT22;14078;50.974;6.786;2022-07-21T11:10:36;21.40;42.50
26378;DHT22;14078;50.974;6.786;2022-07-21T11:13:03;21.30;40.30
26378;DHT22;14078;50.974;6.786;2022-07-21T11:15:54;20.90;92.00
26378;DHT22;14078;50.974;6.786;2022-07-21T11:18:22;20.60;99.90
26378;DHT22;14078;50.974;6.786;2022-07-21T11:21:07;20.40;99.90
26378;DHT22;14078;50.974;6.786;2022-07-21T11:23:35;20.20;99.90
26378;DHT22;14078;50.974;6.786;2022-07-21T11:26:02;20.10;99.90
26378;DHT22;14078;50.974;6.786;2022-07-21T11:28:29;20.00;99.90
26378;DHT22;14078;50.974;6.786;2022-07-21T11:31:06;20.00;99.90
26378;DHT22;14078;50.974;6.786;2022-07-21T11:33:34;20.00;99.90
26378;DHT22;14078;50.974;6.786;2022-07-21T11:36:03;20.00;99.90
26378;DHT22;14078;50.974;6.786;2022-07-21T11:38:30;19.90;99.90
26378;DHT22;14078;50.974;6.786;2022-07-21T11:41:12;19.80;99.90
26378;DHT22;14078;50.974;6.786;2022-07-21T11:43:40;19.70;99.90
26378;DHT22;14078;50.974;6.786;2022-07-21T11:46:07;19.60;99.90
26378;DHT22;14078;50.974;6.786;2022-07-21T11:48:34;19.50;99.90
26378;DHT22;14078;50.974;6.786;2022-07-21T11:51:01;19.40;99.90
26378;DHT22;14078;50.974;6.786;2022-07-21T11:53:29;19.30;99.90
26378;DHT22;14078;50.974;6.786;2022-07-21T11:55:56;19.20;99.90
26378;DHT22;14078;50.974;6.786;2022-07-21T11:58:23;19.10;99.90
26378;DHT22;14078;50.974;6.786;2022-07-21T12:01:03;19.10;99.90
26378;DHT22;14078;50.974;6.786;2022-07-21T12:03:30;19.10;99.90
26378;DHT22;14078;50.974;6.786;2022-07-21T12:05:57;19.00;99.90
26378;DHT22;14078;50.974;6.786;2022-07-21T12:08:25;19.00;99.90
26378;DHT22;14078;50.974;6.786;2022-07-21T12:11:05;19.00;99.90
26378;DHT22;14078;50.974;6.786;2022-07-21T12:16:13;19.00;99.90
26378;DHT22;14078;50.974;6.786;2022-07-21T12:18:40;18.90;99.90
26378;DHT22;14078;50.974;6.786;2022-07-21T12:21:07;18.90;99.90
26378;DHT22;14078;50.974;6.786;2022-07-21T12:23:34;18.90;99.90
26378;DHT22;14078;50.974;6.786;2022-07-21T12:26:03;18.90;99.90
26378;DHT22;14078;50.974;6.786;2022-07-21T12:28:43;18.90;99.90
26378;DHT22;14078;50.974;6.786;2022-07-21T12:31:13;19.00;99.90
26378;DHT22;14078;50.974;6.786;2022-07-21T12:33:42;19.00;99.90
26378;DHT22;14078;50.974;6.786;2022-07-21T12:36:09;19.00;99.90
26378;DHT22;14078;50.974;6.786;2022-07-21T12:38:36;19.10;99.90
26378;DHT22;14078;50.974;6.786;2022-07-21T12:41:04;19.20;99.90
26378;DHT22;14078;50.974;6.786;2022-07-21T12:43:31;19.10;99.90
26378;DHT22;14078;50.974;6.786;2022-07-21T12:46:00;19.10;99.90
26378;DHT22;14078;50.974;6.786;2022-07-21T12:48:27;19.10;99.90
26378;DHT22;14078;50.974;6.786;2022-07-21T12:51:09;19.20;99.90
26378;DHT22;14078;50.974;6.786;2022-07-21T12:53:41;19.20;99.90
26378;DHT22;14078;50.974;6.786;2022-07-21T12:56:08;19.20;99.90
26378;DHT22;14078;50.974;6.786;2022-07-21T12:58:36;19.40;99.90
26378;DHT22;14078;50.974;6.786;2022-07-21T13:01:04;19.40;99.90
26378;DHT22;14078;50.974;6.786;2022-07-21T13:03:32;19.40;99.90
26378;DHT22;14078;50.974;6.786;2022-07-21T13:06:00;19.40;99.90
26378;DHT22;14078;50.974;6.786;2022-07-21T13:08:28;19.50;99.90
26378;DHT22;14078;50.974;6.786;2022-07-21T13:10:55;19.40;99.90
26378;DHT22;14078;50.974;6.786;2022-07-21T13:13:21;19.40;99.90
26378;DHT22;14078;50.974;6.786;2022-07-21T13:15:48;19.40;99.90
26378;DHT22;14078;50.974;6.786;2022-07-21T13:18:16;19.30;99.90
26378;DHT22;14078;50.974;6.786;2022-07-21T13:20:43;19.20;99.90
26378;DHT22;14078;50.974;6.786;2022-07-21T13:23:10;19.30;99.90
26378;DHT22;14078;50.974;6.786;2022-07-21T13:25:36;19.20;99.90
26378;DHT22;14078;50.974;6.786;2022-07-21T13:28:03;19.10;99.90
26378;DHT22;14078;50.974;6.786;2022-07-21T13:30:30;19.00;99.90
26378;DHT22;14078;50.974;6.786;2022-07-21T13:32:57;18.90;99.90
26378;DHT22;14078;50.974;6.786;2022-07-21T13:35:25;18.80;99.90
26378;DHT22;14078;50.974;6.786;2022-07-21T13:37:52;18.70;99.90
26378;DHT22;14078;50.974;6.786;2022-07-21T13:40:19;18.70;99.90
26378;DHT22;14078;50.974;6.786;2022-07-21T13:42:45;18.70;99.90
26378;DHT22;14078;50.974;6.786;2022-07-21T13:45:12;18.80;99.90
26378;DHT22;14078;50.974;6.786;2022-07-21T13:47:39;18.90;99.90
26378;DHT22;14078;50.974;6.786;2022-07-21T13:50:07;19.00;99.90
26378;DHT22;14078;50.974;6.786;2022-07-21T13:52:35;19.00;99.90
26378;DHT22;14078;50.974;6.786;2022-07-21T13:55:03;19.00;99.90
26378;DHT22;14078;50.974;6.786;2022-07-21T13:57:30;18.90;99.90
26378;DHT22;14078;50.974;6.786;2022-07-21T13:59:56;19.00;99.90
26378;DHT22;14078;50.974;6.786;2022-07-21T14:02:23;19.00;99.90
26378;DHT22;14078;50.974;6.786;2022-07-21T14:04:50;19.10;99.90
26378;DHT22;14078;50.974;6.786;2022-07-21T14:07:16;19.20;99.90
26378;DHT22;14078;50.974;6.786;2022-07-21T14:09:44;19.30;99.90
26378;DHT22;14078;50.974;6.786;2022-07-21T14:12:11;19.50;99.90
26378;DHT22;14078;50.974;6.786;2022-07-21T14:14:38;19.60;99.90
26378;DHT22;14078;50.974;6.786;2022-07-21T14:17:06;19.60;99.90
26378;DHT22;14078;50.974;6.786;2022-07-21T14:19:32;19.60;99.90
26378;DHT22;14078;50.974;6.786;2022-07-21T14:21:59;19.60;99.90
26378;DHT22;14078;50.974;6.786;2022-07-21T14:24:26;19.60;99.90
26378;DHT22;14078;50.974;6.786;2022-07-21T14:27:11;19.60;99.90
26378;DHT22;14078;50.974;6.786;2022-07-21T14:29:38;19.50;99.90
26378;DHT22;14078;50.974;6.786;2022-07-21T14:32:05;19.50;99.90
26378;DHT22;14078;50.974;6.786;2022-07-21T14:34:31;19.40;99.90
26378;DHT22;14078;50.974;6.786;2022-07-21T14:36:58;19.10;99.90
26378;DHT22;14078;50.974;6.786;2022-07-21T14:39:25;19.00;99.90
26378;DHT22;14078;50.974;6.786;2022-07-21T14:41:52;18.90;99.90
26378;DHT22;14078;50.974;6.786;2022-07-21T14:44:20;18.80;99.90
26378;DHT22;14078;50.974;6.786;2022-07-21T14:46:46;18.80;99.90
26378;DHT22;14078;50.974;6.786;2022-07-21T14:49:13;18.80;99.90
26378;DHT22;14078;50.974;6.786;2022-07-21T14:51:40;18.90;99.90
26378;DHT22;14078;50.974;6.786;2022-07-21T14:54:06;19.00;99.90
26378;DHT22;14078;50.974;6.786;2022-07-21T14:56:33;19.00;99.90
26378;DHT22;14078;50.974;6.786;2022-07-21T14:59:00;19.10;99.90
26378;DHT22;14078;50.974;6.786;2022-07-21T15:01:28;19.10;99.90
26378;DHT22;14078;50.974;6.786;2022-07-21T15:03:54;19.20;99.90
26378;DHT22;14078;50.974;6.786;2022-07-21T15:06:21;19.50;99.90
26378;DHT22;14078;50.974;6.786;2022-07-21T15:11:15;20.70;99.90
26378;DHT22;14078;50.974;6.786;2022-07-21T15:13:43;21.10;99.90
26378;DHT22;14078;50.974;6.786;2022-07-21T15:16:09;21.20;99.90
26378;DHT22;14078;50.974;6.786;2022-07-21T15:18:38;21.10;99.90
26378;DHT22;14078;50.974;6.786;2022-07-21T15:21:05;20.70;99.90
26378;DHT22;14078;50.974;6.786;2022-07-21T15:23:32;20.50;99.90
26378;DHT22;14078;50.974;6.786;2022-07-21T15:25:59;20.30;99.90
26378;DHT22;14078;50.974;6.786;2022-07-21T15:28:26;20.10;99.90
26378;DHT22;14078;50.974;6.786;2022-07-21T15:30:53;20.10;99.90
26378;DHT22;14078;50.974;6.786;2022-07-21T15:33:19;19.90;99.90
26378;DHT22;14078;50.974;6.786;2022-07-21T15:35:47;19.80;99.90
26378;DHT22;14078;50.974;6.786;2022-07-21T15:38:19;19.80;99.90
26378;DHT22;14078;50.974;6.786;2022-07-21T15:40:46;20.00;99.90
26378;DHT22;14078;50.974;6.786;2022-07-21T15:43:13;20.40;99.90
26378;DHT22;14078;50.974;6.786;2022-07-21T15:45:40;20.70;99.90
26378;DHT22;14078;50.974;6.786;2022-07-21T15:48:07;20.90;99.90